Time;durP1;ratioP1;P1;durP2;ratioP2;P2;SDS_P1;SDS_P2;PMS_P1;PMS_P2;Temp;Humidity;BMP_temperature;BMP_pressure;BME280_temperature;BME280_humidity;BME280_pressure;Samples;Min_cycle;Max_cycle;Signal;HPM_P1;HPM_P2
2023/06/12 00:00:45;;;;;;;;;15.67;14.00;;;;;24.06;60.36;100980.53;4937848;28;45559;-68
2023/06/12 00:03:12;;;;;;;;;13.00;11.33;;;;;24.11;60.23;100985.66;4935034;28;45370;-68
2023/06/12 00:05:45;;;;;;;;;14.67;14.00;;;;;24.10;60.45;100978.56;4935676;28;46014;-69
2023/06/12 00:08:13;;;;;;;;;14.67;13.33;;;;;24.08;60.34;100969.75;4938505;28;45432;-69
2023/06/12 00:10:40;;;;;;;;;13.33;12.00;;;;;24.08;60.09;100972.41;4950594;28;45620;-69
2023/06/12 00:13:07;;;;;;;;;15.67;14.33;;;;;24.09;60.33;100983.06;4934576;28;45498;-72
2023/06/12 00:15:34;;;;;;;;;15.00;10.67;;;;;24.04;60.63;100965.50;4935360;28;45447;-71
2023/06/12 00:18:00;;;;;;;;;41.33;34.00;;;;;24.04;60.71;100979.75;4934365;28;45832;-68
2023/06/12 00:20:27;;;;;;;;;30.33;27.00;;;;;24.03;60.65;100978.00;4939405;28;45471;-69
2023/06/12 00:22:53;;;;;;;;;17.33;17.33;;;;;23.97;60.87;100966.75;4938417;28;45488;-69
2023/06/12 00:25:19;;;;;;;;;16.33;15.00;;;;;24.02;60.85;100973.59;4939491;28;46514;-67
2023/06/12 00:27:45;;;;;;;;;16.00;15.67;;;;;24.03;61.05;100969.13;4939461;28;45404;-67
2023/06/12 00:30:11;;;;;;;;;15.33;13.33;;;;;24.04;60.97;100977.06;4937956;28;45412;-66
2023/06/12 00:32:37;;;;;;;;;23.00;17.67;;;;;24.04;60.99;100971.72;4939176;28;45647;-67
2023/06/12 00:35:03;;;;;;;;;21.67;16.33;;;;;24.05;61.09;100967.22;4934102;28;47745;-67
2023/06/12 00:37:29;;;;;;;;;18.33;16.00;;;;;23.96;60.82;100952.50;4935229;28;45597;-65
2023/06/12 00:39:55;;;;;;;;;16.67;14.67;;;;;24.04;60.86;100968.19;4938114;28;45387;-65
2023/06/12 00:42:21;;;;;;;;;12.67;12.67;;;;;24.02;60.83;100970.06;4938566;28;45505;-65
2023/06/12 00:44:46;;;;;;;;;15.00;14.67;;;;;24.02;60.86;100975.41;4939643;28;45474;-65
2023/06/12 00:47:14;;;;;;;;;14.67;13.00;;;;;23.98;60.94;100964.00;4933829;28;45571;-68
2023/06/12 00:49:40;;;;;;;;;16.33;14.00;;;;;23.95;60.85;100964.16;4934630;28;45487;-66
2023/06/12 00:52:11;;;;;;;;;13.33;13.33;;;;;23.95;60.86;100964.16;4939303;28;45701;-68
2023/06/12 00:54:39;;;;;;;;;14.33;13.67;;;;;23.98;60.89;100969.34;4954604;28;46952;-70
2023/06/12 00:57:07;;;;;;;;;12.00;12.00;;;;;23.90;60.49;100961.72;4939360;28;45404;-74
2023/06/12 00:59:33;;;;;;;;;14.33;12.33;;;;;23.91;60.21;100959.91;4937514;28;45395;-69
2023/06/12 01:01:59;;;;;;;;;13.33;11.00;;;;;23.71;59.88;100934.13;4937508;28;45558;-67
2023/06/12 01:04:24;;;;;;;;;10.00;9.00;;;;;23.88;59.22;100962.72;4938128;28;46442;-72
2023/06/12 01:07:10;;;;;;;;;17.67;12.00;;;;;23.87;59.46;100964.56;4938171;28;45434;-71
2023/06/12 01:09:58;;;;;;;;;14.00;12.67;;;;;23.87;59.20;100961.88;4937333;28;45494;-73
2023/06/12 01:12:24;;;;;;;;;13.67;10.67;;;;;23.83;59.19;100960.28;4937131;28;45512;-72
2023/06/12 01:14:50;;;;;;;;;11.33;9.67;;;;;23.78;58.80;100950.78;4939005;28;45718;-70
2023/06/12 01:17:16;;;;;;;;;9.67;9.00;;;;;23.84;59.01;100969.16;4938736;28;45457;-67
2023/06/12 01:19:42;;;;;;;;;9.00;9.00;;;;;23.70;59.07;100938.63;4936644;28;45616;-69
2023/06/12 01:22:12;;;;;;;;;10.00;10.00;;;;;23.79;59.19;100953.34;4941400;28;45399;-71
2023/06/12 01:25:39;;;;;;;;;11.33;10.67;;;;;23.77;59.35;100957.91;4952809;28;46542;-72
2023/06/12 01:28:33;;;;;;;;;11.33;8.67;;;;;23.70;59.34;100957.34;4896523;28;45486;-69
2023/06/12 01:31:13;;;;;;;;;13.33;9.00;;;;;23.68;59.12;100956.53;4881268;29;45435;-72
2023/06/12 01:33:42;;;;;;;;;11.33;10.33;;;;;23.67;59.28;100949.44;4937042;28;45525;-72
2023/06/12 01:36:15;;;;;;;;;12.00;10.00;;;;;23.73;59.05;100955.41;4937430;28;45416;-69
2023/06/12 01:38:42;;;;;;;;;9.67;9.67;;;;;23.66;58.83;100936.16;4940267;28;45484;-72
2023/06/12 01:41:09;;;;;;;;;10.33;9.67;;;;;23.69;58.32;100944.88;4942048;28;45453;-71
2023/06/12 01:43:36;;;;;;;;;7.33;6.00;;;;;23.67;58.60;100945.91;4937975;28;45408;-67
2023/06/12 01:46:03;;;;;;;;;9.33;7.33;;;;;23.59;58.59;100940.09;4937475;28;45407;-69
2023/06/12 01:48:29;;;;;;;;;7.33;7.00;;;;;23.62;58.65;100947.94;4954467;28;45462;-66
2023/06/12 01:50:55;;;;;;;;;11.67;9.33;;;;;23.65;58.53;100950.47;4957159;28;45458;-65
2023/06/12 01:53:21;;;;;;;;;13.67;10.00;;;;;23.61;58.49;100944.41;4942208;28;45372;-66
2023/06/12 01:55:49;;;;;;;;;9.33;7.33;;;;;23.66;58.73;100947.72;4941685;28;46103;-65
2023/06/12 01:58:16;;;;;;;;;9.33;8.33;;;;;23.63;58.78;100939.84;4940697;28;45386;-65
2023/06/12 02:00:42;;;;;;;;;11.67;10.00;;;;;23.62;59.04;100942.59;4952407;28;45388;-65
2023/06/12 02:03:07;;;;;;;;;10.50;9.00;;;;;23.64;58.75;100943.38;4937591;28;46219;-65
2023/06/12 02:05:33;;;;;;;;;12.00;10.33;;;;;23.64;58.61;100952.28;4951385;28;47703;-65
2023/06/12 02:07:59;;;;;;;;;10.67;9.00;;;;;23.63;59.02;100950.56;4935887;28;45437;-67
2023/06/12 02:10:25;;;;;;;;;13.67;12.33;;;;;23.66;58.67;100961.09;4939607;28;45394;-66
2023/06/12 02:12:51;;;;;;;;;8.67;8.67;;;;;23.65;59.12;100967.38;4941917;28;45397;-66
2023/06/12 02:15:16;;;;;;;;;11.00;9.00;;;;;23.60;59.35;100961.38;4941578;28;46610;-66
2023/06/12 02:17:42;;;;;;;;;13.00;12.33;;;;;23.63;59.05;100958.56;4941420;28;45415;-66
2023/06/12 02:20:08;;;;;;;;;9.67;9.67;;;;;23.61;59.37;100964.91;4941726;28;45321;-67
2023/06/12 02:22:34;;;;;;;;;10.00;10.00;;;;;23.52;59.39;100955.56;4938677;28;45496;-66
2023/06/12 02:24:59;;;;;;;;;12.67;11.00;;;;;23.57;59.41;100968.69;4936423;28;45934;-66
2023/06/12 02:27:25;;;;;;;;;11.33;10.00;;;;;23.59;59.64;100969.50;4941191;28;45282;-66
2023/06/12 02:29:50;;;;;;;;;13.00;10.67;;;;;23.54;59.66;100961.69;4940371;28;45405;-67
2023/06/12 02:32:16;;;;;;;;;12.00;10.33;;;;;23.58;59.63;100976.63;4940370;28;45484;-66
2023/06/12 02:34:43;;;;;;;;;12.33;12.00;;;;;23.58;59.91;100981.97;4937459;28;46430;-66
2023/06/12 02:37:08;;;;;;;;;11.33;10.00;;;;;23.50;60.15;100966.31;4935729;28;45476;-66
2023/06/12 02:39:34;;;;;;;;;12.67;10.00;;;;;23.48;60.08;100962.84;4937050;28;45434;-66
2023/06/12 02:42:00;;;;;;;;;13.67;12.00;;;;;23.50;60.09;100960.97;4937341;28;45879;-65
2023/06/12 02:44:26;;;;;;;;;10.67;10.67;;;;;23.53;60.00;100959.94;4938069;28;45772;-66
2023/06/12 02:46:58;;;;;;;;;15.33;14.00;;;;;23.59;59.99;100970.34;4940682;28;45563;-66
2023/06/12 02:49:26;;;;;;;;;12.33;11.33;;;;;23.58;59.87;100963.25;4940764;28;45488;-66
2023/06/12 02:51:51;;;;;;;;;16.33;12.00;;;;;23.57;60.01;100960.69;4939317;28;45514;-71
2023/06/12 02:54:18;;;;;;;;;13.00;13.00;;;;;23.57;60.16;100958.88;4940353;28;45389;-69
2023/06/12 02:56:47;;;;;;;;;14.00;11.33;;;;;23.54;60.50;100953.69;4935018;28;45404;-67
2023/06/12 02:59:16;;;;;;;;;14.67;13.33;;;;;23.48;60.25;100948.63;4936751;28;45635;-65
2023/06/12 03:01:45;;;;;;;;;10.67;10.67;;;;;23.49;60.57;100943.19;4936723;28;45740;-71
2023/06/12 03:04:20;;;;;;;;;16.33;13.67;;;;;23.47;60.60;100947.75;4936031;28;46644;-66
2023/06/12 03:06:48;;;;;;;;;12.67;12.67;;;;;23.49;60.44;100948.56;4936299;28;45472;-68
2023/06/12 03:09:15;;;;;;;;;11.33;11.33;;;;;23.52;60.85;100958.22;4936650;28;45532;-66
2023/06/12 03:11:43;;;;;;;;;16.00;15.33;;;;;23.42;60.84;100943.53;4936709;28;45455;-67
2023/06/12 03:14:09;;;;;;;;;14.67;12.67;;;;;23.47;60.72;100954.91;4936538;28;46038;-67
2023/06/12 03:16:36;;;;;;;;;14.67;14.33;;;;;23.40;60.50;100950.81;4938924;28;45392;-67
2023/06/12 03:19:02;;;;;;;;;13.67;11.00;;;;;23.37;60.88;100951.81;4951214;28;45477;-69
2023/06/12 03:21:28;;;;;;;;;12.00;11.33;;;;;23.39;60.52;100946.38;4936523;28;45945;-68
2023/06/12 03:23:53;;;;;;;;;16.67;14.33;;;;;23.41;60.87;100955.19;4937090;28;46492;-68
2023/06/12 03:26:19;;;;;;;;;17.33;13.33;;;;;23.38;60.35;100956.22;4955103;28;45385;-72
2023/06/12 03:28:45;;;;;;;;;16.00;12.00;;;;;23.42;60.35;100964.94;4940162;28;45388;-68
2023/06/12 03:31:12;;;;;;;;;14.33;12.00;;;;;23.37;60.50;100953.59;4954939;28;45468;-67
2023/06/12 03:33:37;;;;;;;;;12.00;12.00;;;;;23.38;60.86;100958.03;4938664;28;45645;-66
2023/06/12 03:36:03;;;;;;;;;14.33;11.67;;;;;23.31;60.61;100944.09;4935866;28;45495;-71
2023/06/12 03:38:28;;;;;;;;;18.67;13.33;;;;;23.22;60.88;100926.66;4936202;28;45422;-71
2023/06/12 03:40:54;;;;;;;;;13.00;10.33;;;;;23.38;60.87;100953.53;4937196;28;45576;-70
2023/06/12 03:43:19;;;;;;;;;15.00;14.00;;;;;23.40;60.27;100964.16;4937790;28;45891;-71
2023/06/12 03:45:45;;;;;;;;;11.00;11.00;;;;;23.37;60.44;100961.63;4940330;28;45278;-70
2023/06/12 03:48:11;;;;;;;;;14.67;12.00;;;;;23.37;60.11;100958.94;4940313;28;45381;-69
2023/06/12 03:50:36;;;;;;;;;15.00;13.67;;;;;23.34;60.25;100962.63;4940340;28;45598;-66
2023/06/12 03:53:02;;;;;;;;;11.00;10.67;;;;;23.33;60.03;100954.72;4938778;28;46080;-71
2023/06/12 03:55:28;;;;;;;;;13.67;12.33;;;;;23.31;59.89;100969.94;4936614;28;45534;-68
2023/06/12 03:57:54;;;;;;;;;14.00;12.33;;;;;23.32;60.09;100967.19;4935479;28;45421;-70
2023/06/12 04:00:21;;;;;;;;;10.67;8.67;;;;;23.34;60.03;100976.00;4936108;28;45639;-69
2023/06/12 04:02:46;;;;;;;;;10.00;10.00;;;;;23.29;59.50;100970.00;4950414;28;46984;-70
2023/06/12 04:05:12;;;;;;;;;13.00;10.67;;;;;23.27;59.68;100975.41;4935471;28;45450;-73
2023/06/12 04:07:38;;;;;;;;;13.67;11.33;;;;;23.33;59.16;100970.75;4934659;28;45374;-72
2023/06/12 04:10:05;;;;;;;;;13.33;11.00;;;;;23.32;59.41;100969.00;4936079;28;45436;-68
2023/06/12 04:12:31;;;;;;;;;10.67;9.67;;;;;23.29;59.14;100970.00;4933710;28;47846;-69
2023/06/12 04:14:57;;;;;;;;;11.67;11.33;;;;;23.27;59.04;100963.88;4950557;28;45475;-68
2023/06/12 04:17:23;;;;;;;;;14.33;12.33;;;;;23.26;59.19;100960.34;4935532;28;45510;-69
2023/06/12 04:19:49;;;;;;;;;11.67;11.67;;;;;23.24;59.00;100953.34;4933865;28;45472;-66
2023/06/12 04:22:16;;;;;;;;;12.00;11.67;;;;;23.21;59.21;100953.50;4934005;28;47891;-70
2023/06/12 04:24:43;;;;;;;;;10.67;10.00;;;;;23.21;59.35;100943.66;4935423;28;45469;-69
2023/06/12 04:27:13;;;;;;;;;10.33;10.33;;;;;23.24;59.47;100948.00;4935556;28;45856;-68
2023/06/12 04:29:42;;;;;;;;;12.33;12.33;;;;;23.27;59.66;100946.03;4933871;28;45802;-68
2023/06/12 04:32:09;;;;;;;;;13.00;12.00;;;;;23.28;60.06;100952.25;4950098;28;46939;-70
2023/06/12 04:34:43;;;;;;;;;8.00;8.00;;;;;23.25;60.24;100955.94;4950915;28;45559;-69
2023/06/12 04:37:13;;;;;;;;;16.67;15.00;;;;;23.22;60.30;100945.38;4954256;28;45608;-68
2023/06/12 04:39:40;;;;;;;;;15.67;15.33;;;;;23.29;60.45;100960.19;4938473;28;45533;-70
2023/06/12 04:42:10;;;;;;;;;11.67;11.00;;;;;23.29;60.58;100962.84;4938321;28;45417;-70
2023/06/12 04:44:39;;;;;;;;;21.00;15.50;;;;;23.24;60.58;100958.69;4939373;28;45413;-72
2023/06/12 04:47:08;;;;;;;;;16.00;15.00;;;;;23.31;60.38;100968.13;4938911;28;45248;-66
2023/06/12 04:49:40;;;;;;;;;17.67;14.67;;;;;23.20;60.40;100952.59;4935351;28;45488;-69
2023/06/12 04:52:07;;;;;;;;;13.67;12.67;;;;;23.32;60.52;100969.84;4949564;28;46831;-66
2023/06/12 04:54:35;;;;;;;;;14.67;13.33;;;;;23.26;60.38;100965.69;4936595;28;45398;-74
2023/06/12 04:57:08;;;;;;;;;18.00;14.67;;;;;23.31;60.43;100976.16;4939238;28;45667;-67
2023/06/12 04:59:37;;;;;;;;;15.67;13.67;;;;;23.23;60.19;100965.84;4937700;28;45496;-73
2023/06/12 05:02:03;;;;;;;;;13.33;12.67;;;;;23.33;59.94;100976.09;4937508;28;47550;-69
2023/06/12 05:04:30;;;;;;;;;15.67;13.67;;;;;23.29;59.83;100968.19;4937689;28;45426;-72
2023/06/12 05:06:57;;;;;;;;;15.67;14.67;;;;;23.31;60.10;100976.16;4938268;28;45481;-71
2023/06/12 05:09:23;;;;;;;;;19.00;14.00;;;;;23.31;59.48;100984.16;4938039;28;45415;-70
2023/06/12 05:11:49;;;;;;;;;17.00;13.67;;;;;23.27;59.60;100967.41;4938980;28;45270;-68
2023/06/12 05:14:14;;;;;;;;;16.00;14.33;;;;;23.33;59.61;100978.75;4937482;28;45512;-69
2023/06/12 05:16:40;;;;;;;;;9.67;9.67;;;;;23.31;59.76;100975.28;4952441;28;45354;-69
2023/06/12 05:19:06;;;;;;;;;12.33;11.67;;;;;23.27;59.89;100967.41;4934853;28;45634;-67
2023/06/12 05:21:31;;;;;;;;;15.33;11.33;;;;;23.32;59.78;100974.34;4935645;28;48158;-66
2023/06/12 05:23:57;;;;;;;;;15.33;13.67;;;;;23.34;59.59;100978.66;4938952;28;45447;-69
2023/06/12 05:26:23;;;;;;;;;164.25;133.75;;;;;23.28;60.53;100968.28;4938974;28;45254;-67
2023/06/12 05:28:48;;;;;;;;;264.50;217.00;;;;;23.36;60.03;100975.94;4937674;28;45370;-68
2023/06/12 05:31:14;;;;;;;;;136.33;118.00;;;;;23.41;59.53;100969.41;4937023;28;45354;-67
2023/06/12 05:33:40;;;;;;;;;60.00;45.25;;;;;23.43;59.89;100961.34;4934302;28;45860;-67
2023/06/12 05:36:07;;;;;;;;;39.67;34.33;;;;;23.48;59.47;100960.16;4935746;28;45543;-66
2023/06/12 05:38:33;;;;;;;;;27.33;21.67;;;;;23.57;59.17;100966.88;4934395;28;45591;-68
2023/06/12 05:40:59;;;;;;;;;18.67;18.67;;;;;23.61;59.15;100973.81;4934692;28;46791;-66
2023/06/12 05:43:24;;;;;;;;;21.33;19.33;;;;;23.48;58.76;100943.25;4938852;28;45511;-68
2023/06/12 05:45:50;;;;;;;;;16.00;14.00;;;;;23.65;58.58;100970.03;4941012;28;45481;-65
2023/06/12 05:48:15;;;;;;;;;13.67;13.33;;;;;23.62;58.48;100967.53;4942166;28;45524;-65
2023/06/12 05:50:41;;;;;;;;;15.00;13.00;;;;;23.67;58.34;100973.50;4937834;28;47378;-65
2023/06/12 05:53:08;;;;;;;;;15.00;14.33;;;;;23.67;58.34;100981.53;4937237;28;45534;-70
2023/06/12 05:55:34;;;;;;;;;10.67;8.33;;;;;23.58;58.38;100976.63;4937648;28;45316;-67
2023/06/12 05:57:59;;;;;;;;;16.00;13.33;;;;;23.63;58.68;100976.41;4938258;28;45345;-68
2023/06/12 06:00:25;;;;;;;;;11.67;11.00;;;;;23.66;58.45;100979.81;4937694;28;46123;-67
2023/06/12 06:02:51;;;;;;;;;17.33;13.33;;;;;23.65;58.02;100970.03;4936352;28;45326;-70
2023/06/12 06:05:17;;;;;;;;;14.67;13.67;;;;;23.67;58.19;100972.66;4940182;28;45538;-67
2023/06/12 06:07:43;;;;;;;;;15.00;13.00;;;;;23.68;58.20;100972.59;4940707;28;45588;-68
2023/06/12 06:10:09;;;;;;;;;13.67;11.00;;;;;23.69;57.90;100976.13;4936104;28;45618;-69
2023/06/12 06:12:35;;;;;;;;;14.67;13.00;;;;;23.73;58.25;100982.16;4937354;28;45899;-69
2023/06/12 06:15:00;;;;;;;;;12.00;12.00;;;;;23.75;57.72;100983.00;4937281;28;45289;-67
2023/06/12 06:17:26;;;;;;;;;12.33;11.00;;;;;23.68;57.63;100969.00;4939985;28;45774;-69
2023/06/12 06:19:51;;;;;;;;;10.00;10.00;;;;;23.77;57.96;100979.28;4941551;28;45542;-68
2023/06/12 06:22:17;;;;;;;;;11.00;9.00;;;;;23.80;57.66;100991.66;4952885;28;45446;-69
2023/06/12 06:24:44;;;;;;;;;14.67;11.33;;;;;23.82;57.55;100987.09;4936815;28;45324;-68
2023/06/12 06:27:10;;;;;;;;;10.33;10.33;;;;;23.82;57.32;100997.78;4936755;28;45480;-67
2023/06/12 06:29:35;;;;;;;;;12.00;10.33;;;;;23.77;57.30;100983.78;4935961;28;45774;-71
2023/06/12 06:32:01;;;;;;;;;13.00;11.67;;;;;23.86;57.12;100992.22;4937352;28;45439;-68
2023/06/12 06:34:28;;;;;;;;;9.67;9.33;;;;;23.81;56.82;100974.69;4936709;28;45546;-68
2023/06/12 06:36:55;;;;;;;;;11.67;11.67;;;;;23.94;56.22;100994.50;4936436;28;45515;-67
2023/06/12 06:39:21;;;;;;;;;10.33;10.33;;;;;23.95;56.56;100984.69;4938062;28;47044;-71
2023/06/12 06:41:47;;;;;;;;;21.00;18.33;;;;;24.00;56.37;100986.19;4939227;28;45317;-66
2023/06/12 06:44:12;;;;;;;;;18.33;17.67;;;;;24.00;56.14;100971.94;4934604;28;45480;-67
2023/06/12 06:46:38;;;;;;;;;20.33;18.67;;;;;24.03;56.61;100979.81;4938443;28;45233;-66
2023/06/12 06:49:03;;;;;;;;;18.67;15.00;;;;;24.08;56.00;100975.09;4939885;28;47013;-70
2023/06/12 06:51:30;;;;;;;;;13.67;13.67;;;;;24.12;55.91;100982.03;4937028;28;45880;-66
2023/06/12 06:53:57;;;;;;;;;14.00;13.00;;;;;24.09;55.94;100974.16;4950646;28;45801;-70
2023/06/12 06:56:23;;;;;;;;;15.33;13.67;;;;;24.05;55.88;100977.94;4952526;28;45385;-68
2023/06/12 06:58:48;;;;;;;;;9.33;8.33;;;;;24.07;56.13;100979.59;4937543;28;45952;-71
2023/06/12 07:01:15;;;;;;;;;15.33;14.00;;;;;24.10;55.75;100978.56;4950452;28;45448;-66
2023/06/12 07:03:41;;;;;;;;;11.00;10.33;;;;;24.10;55.70;100981.25;4935585;28;45684;-66
2023/06/12 07:06:07;;;;;;;;;11.33;10.67;;;;;24.14;56.13;100985.50;4934106;28;45361;-66
2023/06/12 07:08:32;;;;;;;;;15.00;15.00;;;;;24.10;56.06;100971.41;4932557;28;45654;-66
2023/06/12 07:10:58;;;;;;;;;18.00;15.33;;;;;24.20;55.92;100986.97;4934226;28;46091;-66
2023/06/12 07:13:24;;;;;;;;;15.00;11.67;;;;;24.21;55.92;100984.25;4935497;28;45519;-66
2023/06/12 07:15:51;;;;;;;;;12.00;11.67;;;;;24.23;55.49;100977.00;4936280;28;45547;-67
2023/06/12 07:18:17;;;;;;;;;12.67;11.33;;;;;24.24;55.82;100989.44;4934512;28;48011;-65
2023/06/12 07:20:43;;;;;;;;;12.33;11.33;;;;;24.25;55.95;100977.78;4935725;28;45573;-66
2023/06/12 07:23:09;;;;;;;;;10.67;10.00;;;;;24.26;55.95;100982.19;4933485;28;45371;-68
2023/06/12 07:25:34;;;;;;;;;11.00;11.00;;;;;24.30;55.56;100988.28;4936006;28;45349;-66
2023/06/12 07:28:00;;;;;;;;;11.33;11.33;;;;;24.33;55.65;100982.75;4936155;28;46141;-66
2023/06/12 07:30:26;;;;;;;;;11.33;11.33;;;;;24.38;56.20;100982.50;4953152;28;45437;-67
2023/06/12 07:32:52;;;;;;;;;11.33;10.67;;;;;24.37;55.70;100973.63;4952690;28;45310;-67
2023/06/12 07:35:18;;;;;;;;;10.00;10.00;;;;;24.43;55.94;100986.66;4950906;28;45487;-68
2023/06/12 07:37:45;;;;;;;;;19.33;14.00;;;;;24.50;55.50;100982.75;4950888;28;46928;-68
2023/06/12 07:40:11;;;;;;;;;17.33;13.67;;;;;24.46;55.16;100977.59;4935903;28;45572;-67
2023/06/12 07:42:37;;;;;;;;;14.33;13.00;;;;;24.51;54.89;100986.28;4950913;28;45469;-70
2023/06/12 07:45:04;;;;;;;;;14.00;12.33;;;;;24.50;55.28;100985.44;4938261;28;45395;-66
2023/06/12 07:47:30;;;;;;;;;14.00;12.33;;;;;24.51;55.04;100987.19;4939532;28;46230;-68
2023/06/12 07:49:55;;;;;;;;;13.33;10.67;;;;;24.52;54.87;100983.56;4954263;28;45745;-66
2023/06/12 07:52:24;;;;;;;;;14.33;12.00;;;;;24.52;54.94;100969.31;4935873;28;45475;-69
2023/06/12 07:54:50;;;;;;;;;15.00;12.67;;;;;24.59;55.14;100975.22;4936065;28;45415;-66
2023/06/12 07:57:16;;;;;;;;;17.00;13.67;;;;;24.60;54.99;100967.06;4935878;28;47136;-67
2023/06/12 07:59:44;;;;;;;;;15.00;14.67;;;;;24.71;54.62;100978.09;4954712;28;45704;-67
2023/06/12 08:02:10;;;;;;;;;14.33;14.00;;;;;24.79;54.91;100980.34;4940488;28;45441;-66
2023/06/12 08:04:42;;;;;;;;;18.67;16.33;;;;;24.90;53.77;100986.00;4935746;28;45493;-68
2023/06/12 08:07:12;;;;;;;;;18.00;16.00;;;;;24.92;54.58;100985.94;4915687;28;46236;-67
2023/06/12 08:09:40;;;;;;;;;18.33;15.00;;;;;24.78;54.49;100962.56;4934920;28;45466;-71
2023/06/12 08:12:06;;;;;;;;;17.67;14.33;;;;;24.97;54.02;100976.69;4920757;28;45290;-70
2023/06/12 08:14:32;;;;;;;;;16.67;14.33;;;;;25.08;54.01;100972.53;4917602;28;45690;-67
2023/06/12 08:16:58;;;;;;;;;18.33;15.00;;;;;25.13;53.87;100965.13;4914373;28;45639;-66
2023/06/12 08:19:24;;;;;;;;;17.67;15.67;;;;;25.25;53.58;100966.28;4919474;28;45595;-68
2023/06/12 08:21:50;;;;;;;;;22.00;18.33;;;;;25.29;52.58;100962.47;4930478;28;45520;-68
2023/06/12 08:24:16;;;;;;;;;16.33;15.33;;;;;25.36;52.32;100964.72;4931264;28;45544;-72
2023/06/12 08:26:45;;;;;;;;;17.67;15.67;;;;;25.32;52.61;100947.09;4923129;28;46028;-70
2023/06/12 08:29:12;;;;;;;;;16.67;15.33;;;;;25.35;52.98;100956.78;4935506;28;45442;-72
2023/06/12 08:31:41;;;;;;;;;18.00;16.33;;;;;25.44;52.87;100947.34;4934905;28;45576;-68
2023/06/12 08:34:06;;;;;;;;;17.67;16.00;;;;;25.48;52.38;100949.75;4954008;28;45404;-68
2023/06/12 08:36:35;;;;;;;;;14.00;14.00;;;;;25.54;52.40;100948.56;4935198;28;45515;-68
2023/06/12 08:39:14;;;;;;;;;16.00;15.00;;;;;25.57;52.94;100943.00;4935133;28;45511;-68
2023/06/12 08:42:01;;;;;;;;;17.00;13.67;;;;;25.62;52.28;100940.06;4936924;28;45737;-70
2023/06/12 08:44:29;;;;;;;;;16.33;16.00;;;;;25.67;51.77;100949.56;4955120;28;45424;-71
2023/06/12 08:46:56;;;;;;;;;17.67;15.67;;;;;25.54;52.44;100944.06;4954088;28;46086;-68
2023/06/12 08:49:22;;;;;;;;;16.00;13.33;;;;;25.62;52.76;100948.97;4939524;28;45823;-71
2023/06/12 08:51:51;;;;;;;;;17.33;15.33;;;;;25.65;52.69;100954.19;4938096;28;45271;-68
2023/06/12 08:54:17;;;;;;;;;18.33;17.67;;;;;25.73;52.49;100951.91;4936627;28;45471;-69
2023/06/12 08:56:45;;;;;;;;;15.67;15.67;;;;;25.78;52.36;100952.50;4949912;28;47851;-67
2023/06/12 08:59:11;;;;;;;;;16.00;14.50;;;;;25.65;52.12;100937.19;4934995;28;45381;-66
2023/06/12 09:01:41;;;;;;;;;17.00;15.33;;;;;25.72;52.94;100954.66;4933087;28;45428;-67
2023/06/12 09:04:30;;;;;;;;;17.33;15.00;;;;;25.66;52.70;100952.38;4949518;28;45529;-68
2023/06/12 09:07:01;;;;;;;;;15.67;13.67;;;;;25.52;52.60;100937.06;4918762;28;46096;-67
2023/06/12 09:09:41;;;;;;;;;18.67;18.00;;;;;25.56;52.76;100943.97;4930863;28;45501;-65
2023/06/12 09:12:12;;;;;;;;;18.67;17.00;;;;;25.43;52.54;100924.16;4927458;28;45559;-67
2023/06/12 09:14:40;;;;;;;;;22.33;17.33;;;;;25.38;52.72;100919.94;4946665;28;45429;-68
2023/06/12 09:17:09;;;;;;;;;16.00;15.33;;;;;25.51;53.25;100932.66;4949204;28;45846;-68
2023/06/12 09:19:39;;;;;;;;;14.67;14.67;;;;;25.51;52.75;100924.63;4937768;28;45570;-69
2023/06/12 09:22:05;;;;;;;;;16.67;16.67;;;;;25.45;52.80;100911.56;4950616;28;45934;-69
2023/06/12 09:24:31;;;;;;;;;16.33;13.33;;;;;25.59;52.71;100933.06;4950932;28;45604;-67
2023/06/12 09:27:00;;;;;;;;;21.00;17.33;;;;;25.55;52.63;100924.31;4933218;28;46808;-69
2023/06/12 09:29:31;;;;;;;;;19.33;16.33;;;;;25.71;52.21;100943.09;4936270;28;45836;-68
2023/06/12 09:32:06;;;;;;;;;18.67;18.00;;;;;25.71;52.38;100940.41;4936196;28;46521;-67
2023/06/12 09:34:35;;;;;;;;;19.00;14.00;;;;;25.76;52.31;100953.53;4939676;28;45435;-67
2023/06/12 09:37:05;;;;;;;;;19.33;19.33;;;;;25.74;52.39;100944.72;4937828;28;46983;-67
2023/06/12 09:39:31;;;;;;;;;17.00;16.67;;;;;25.80;52.49;100955.97;4938332;28;45615;-69
2023/06/12 09:42:00;;;;;;;;;14.33;14.33;;;;;25.81;52.49;100948.78;4936276;28;45368;-67
2023/06/12 09:44:28;;;;;;;;;18.00;18.00;;;;;25.76;52.24;100941.00;4936589;28;45518;-68
2023/06/12 09:46:59;;;;;;;;;21.00;16.67;;;;;25.74;52.65;100950.94;4937992;28;45483;-67
2023/06/12 09:49:24;;;;;;;;;23.33;19.33;;;;;25.63;52.43;100947.16;4939740;28;45456;-66
2023/06/12 09:51:51;;;;;;;;;17.67;16.00;;;;;25.63;52.98;100944.47;4935803;28;45370;-68
2023/06/12 09:54:19;;;;;;;;;19.33;18.00;;;;;25.69;52.93;100958.41;4935751;28;45516;-68
2023/06/12 09:56:47;;;;;;;;;31.33;26.67;;;;;25.47;53.15;100926.59;4933534;28;47455;-68
2023/06/12 09:59:18;;;;;;;;;21.33;20.33;;;;;25.55;53.07;100959.19;4933921;28;45489;-67
2023/06/12 10:01:50;;;;;;;;;19.33;16.67;;;;;25.55;53.56;100961.88;4933552;28;45970;-68
2023/06/12 10:04:38;;;;;;;;;21.00;20.67;;;;;25.62;53.26;100954.34;4935108;28;45433;-68
2023/06/12 10:07:11;;;;;;;;;18.00;16.67;;;;;25.53;53.25;100931.63;4932566;28;45876;-69
2023/06/12 10:09:39;;;;;;;;;30.00;25.67;;;;;25.54;52.68;100936.00;4935594;28;46438;-68
2023/06/12 10:12:06;;;;;;;;;30.00;27.33;;;;;25.38;53.69;100948.56;4934445;28;45713;-67
2023/06/12 10:14:33;;;;;;;;;32.67;27.67;;;;;25.22;53.79;100955.72;4934693;28;45434;-68
2023/06/12 10:17:01;;;;;;;;;26.33;24.00;;;;;25.03;54.86;100966.56;4934628;28;45472;-68
2023/06/12 10:19:28;;;;;;;;;23.67;22.33;;;;;25.04;54.60;100957.59;4934840;28;45332;-68
2023/06/12 10:21:55;;;;;;;;;28.33;25.67;;;;;24.98;54.91;100948.94;4936952;28;45372;-68
2023/06/12 10:24:25;;;;;;;;;26.00;22.00;;;;;25.14;54.93;100956.13;4939708;28;45408;-72
2023/06/12 10:26:56;;;;;;;;;21.00;20.67;;;;;25.28;54.54;100952.72;4937020;28;45988;-69
2023/06/12 10:29:30;;;;;;;;;26.67;24.33;;;;;25.41;54.07;100947.53;4938992;28;45623;-67
2023/06/12 10:32:14;;;;;;;;;30.00;26.67;;;;;25.34;54.40;100942.53;4932455;28;45314;-69
2023/06/12 10:34:42;;;;;;;;;25.67;23.67;;;;;25.41;54.21;100936.81;4933111;28;45457;-67
2023/06/12 10:37:38;;;;;;;;;20.33;20.33;;;;;25.51;54.09;100943.38;4937871;28;45538;-69
2023/06/12 10:40:12;;;;;;;;;26.00;22.00;;;;;25.56;54.34;100935.94;4932885;28;45829;-69
2023/06/12 10:42:42;;;;;;;;;21.67;19.33;;;;;25.58;54.09;100942.09;4929557;28;45759;-69
2023/06/12 10:45:15;;;;;;;;;19.00;19.00;;;;;25.62;54.01;100932.88;4937659;28;46095;-70
2023/06/12 10:47:40;;;;;;;;;16.33;16.33;;;;;25.76;53.49;100949.03;4932950;28;48330;-70
2023/06/12 10:50:08;;;;;;;;;19.00;18.00;;;;;25.73;53.28;100930.44;4933159;28;45499;-67
2023/06/12 10:52:34;;;;;;;;;16.00;15.67;;;;;25.85;53.36;100936.06;4933347;28;45391;-73
2023/06/12 10:55:20;;;;;;;;;28.33;22.67;;;;;25.96;52.72;100950.59;4934237;28;45723;-67
2023/06/12 10:57:54;;;;;;;;;19.00;19.00;;;;;26.01;52.56;100936.91;4932025;28;46759;-68
2023/06/12 11:00:31;;;;;;;;;25.00;21.33;;;;;26.01;52.57;100937.78;4931060;28;46550;-68
2023/06/12 11:03:03;;;;;;;;;19.00;18.67;;;;;26.01;52.60;100943.13;4948453;28;45432;-69
2023/06/12 11:05:30;;;;;;;;;28.00;22.33;;;;;26.02;52.28;100931.44;4935155;28;46378;-72
2023/06/12 11:08:01;;;;;;;;;22.00;22.00;;;;;26.12;52.79;100941.63;4936784;28;45653;-68
2023/06/12 11:10:27;;;;;;;;;21.67;19.00;;;;;26.14;52.19;100928.97;4933680;28;45431;-71
2023/06/12 11:12:53;;;;;;;;;21.67;20.67;;;;;26.28;52.42;100941.56;4949440;28;45459;-67